Time;durP1;ratioP1;P1;durP2;ratioP2;P2;SDS_P1;SDS_P2;PMS_P1;PMS_P2;Temp;Humidity;BMP_temperature;BMP_pressure;BME280_temperature;BME280_humidity;BME280_pressure;Samples;Min_cycle;Max_cycle;Signal;HPM_P1;HPM_P2
2022/04/30 00:00:18;;;;;;;12.35;6.15;;;13.90;87.10;;;;;;6185046;23;20032;-80
2022/04/30 00:02:44;;;;;;;7.05;5.80;;;13.90;87.40;;;;;;6185307;23;20004;-80
2022/04/30 00:05:10;;;;;;;6.13;5.18;;;13.90;87.90;;;;;;6158537;23;20028;-80
2022/04/30 00:07:36;;;;;;;11.98;5.70;;;13.90;88.20;;;;;;6184260;23;20012;-80
2022/04/30 00:10:03;;;;;;;8.38;6.43;;;13.90;87.70;;;;;;6158083;23;20005;-80
2022/04/30 00:12:29;;;;;;;6.63;5.88;;;13.90;88.20;;;;;;6184455;23;19993;-80
2022/04/30 00:14:55;;;;;;;12.98;5.65;;;13.90;88.30;;;;;;6158812;23;20008;-80
2022/04/30 00:17:21;;;;;;;7.20;5.88;;;13.90;88.20;;;;;;6185356;23;20337;-80
2022/04/30 00:19:47;;;;;;;10.57;6.13;;;13.90;88.20;;;;;;6159465;23;20433;-80
2022/04/30 00:22:12;;;;;;;10.55;5.75;;;13.90;88.10;;;;;;6159637;23;20005;-80
2022/04/30 00:24:38;;;;;;;7.65;5.43;;;13.90;88.10;;;;;;6185683;23;20040;-80
2022/04/30 00:27:05;;;;;;;8.68;6.00;;;13.90;88.30;;;;;;6185546;23;20469;-80
2022/04/30 00:29:31;;;;;;;7.53;5.93;;;13.90;88.30;;;;;;6185821;23;20001;-80
2022/04/30 00:32:02;;;;;;;9.75;6.25;;;13.90;87.80;;;;;;6159466;23;20036;-80
2022/04/30 00:34:29;;;;;;;9.27;6.13;;;14.00;88.20;;;;;;6185690;23;20008;-80
2022/04/30 00:36:56;;;;;;;6.65;5.75;;;14.00;88.60;;;;;;6185254;23;20004;-80
2022/04/30 00:39:21;;;;;;;7.88;6.13;;;13.90;89.50;;;;;;6185390;23;20024;-80
2022/04/30 00:41:48;;;;;;;8.60;5.88;;;13.80;90.00;;;;;;6185375;23;20433;-80
2022/04/30 00:44:18;;;;;;;10.50;6.47;;;13.80;90.20;;;;;;6185868;23;20004;-80
2022/04/30 00:46:44;;;;;;;10.23;6.88;;;13.80;90.10;;;;;;6185473;23;20561;-80
2022/04/30 00:49:10;;;;;;;7.93;5.85;;;13.70;90.10;;;;;;6185586;23;20023;-80
2022/04/30 00:51:38;;;;;;;9.38;5.75;;;13.70;90.30;;;;;;6185655;23;20024;-80
2022/04/30 00:54:05;;;;;;;8.70;5.90;;;13.70;90.40;;;;;;6185375;23;19997;-80
2022/04/30 00:56:43;;;;;;;9.38;6.25;;;13.70;90.50;;;;;;6185270;23;19997;-80
2022/04/30 00:59:11;;;;;;;6.93;6.20;;;13.70;90.60;;;;;;6185138;23;20132;-80
2022/04/30 01:01:37;;;;;;;9.35;6.10;;;13.70;90.60;;;;;;6158845;23;20005;-80
2022/04/30 01:04:07;;;;;;;10.35;6.07;;;13.60;90.70;;;;;;6159245;23;20009;-80
2022/04/30 01:06:36;;;;;;;14.60;7.00;;;13.60;90.80;;;;;;6158874;23;20380;-80
2022/04/30 01:09:01;;;;;;;8.27;5.70;;;13.60;91.10;;;;;;6185484;23;20005;-80
2022/04/30 01:11:29;;;;;;;9.40;6.22;;;13.60;91.10;;;;;;6185116;23;20076;-82
2022/04/30 01:13:55;;;;;;;9.35;6.53;;;13.60;91.10;;;;;;6179503;23;20005;-80
2022/04/30 01:16:21;;;;;;;9.88;5.60;;;13.60;91.20;;;;;;6185288;23;20051;-80
2022/04/30 01:18:47;;;;;;;8.65;6.50;;;13.60;91.10;;;;;;6159108;23;20016;-80
2022/04/30 01:21:14;;;;;;;7.20;5.78;;;13.60;91.40;;;;;;6159097;23;20009;-80
2022/04/30 01:23:44;;;;;;;6.68;6.05;;;13.50;91.70;;;;;;6185200;23;20009;-80
2022/04/30 01:26:13;;;;;;;7.30;5.97;;;13.50;91.80;;;;;;6185277;23;20009;-80
2022/04/30 01:28:43;;;;;;;7.32;6.15;;;13.50;91.80;;;;;;6185131;23;20013;-80
2022/04/30 01:37:22;;;;;;;7.78;5.90;;;13.50;91.80;;;;;;6158947;23;20081;-80
2022/04/30 01:39:30;;;;;;;9.40;6.72;;;13.40;92.10;;;;;;6185287;23;20036;-80
2022/04/30 01:42:03;;;;;;;8.82;6.20;;;13.40;92.10;;;;;;6185063;23;20441;-80
2022/04/30 01:44:29;;;;;;;7.65;5.40;;;13.40;92.30;;;;;;6158600;23;20009;-80
2022/04/30 01:46:55;;;;;;;11.63;6.88;;;13.30;92.20;;;;;;6158790;23;20468;-80
2022/04/30 01:49:21;;;;;;;8.60;5.80;;;13.30;92.40;;;;;;6185229;23;20388;-80
2022/04/30 01:51:50;;;;;;;7.32;5.95;;;13.30;92.30;;;;;;6185167;23;20075;-80
2022/04/30 01:54:17;;;;;;;12.27;6.32;;;13.40;92.30;;;;;;6185214;23;20001;-80
2022/04/30 01:56:42;;;;;;;10.13;6.43;;;13.40;92.30;;;;;;6185227;23;20076;-80
2022/04/30 01:59:08;;;;;;;8.90;6.75;;;13.30;92.20;;;;;;6158716;23;20585;-80
2022/04/30 02:01:37;;;;;;;7.15;6.28;;;13.30;92.20;;;;;;6185221;23;20460;-80
2022/04/30 02:04:04;;;;;;;6.72;6.05;;;13.30;92.20;;;;;;6185297;23;20025;-80
2022/04/30 02:06:31;;;;;;;6.47;5.68;;;13.30;92.30;;;;;;6158665;23;20001;-80
2022/04/30 02:08:57;;;;;;;8.20;5.82;;;13.20;92.30;;;;;;6184682;23;20059;-80
2022/04/30 02:11:23;;;;;;;7.72;5.78;;;13.20;92.30;;;;;;6184229;23;20001;-80
2022/04/30 02:13:53;;;;;;;7.72;6.20;;;13.30;92.40;;;;;;6158281;23;20092;-80
2022/04/30 02:16:23;;;;;;;6.88;6.05;;;13.30;92.50;;;;;;6184761;23;20306;-81
2022/04/30 02:18:51;;;;;;;10.18;6.72;;;13.30;92.50;;;;;;6159499;23;20009;-80
2022/04/30 02:21:20;;;;;;;9.30;6.00;;;13.30;92.60;;;;;;6186979;23;20584;-80
2022/04/30 02:23:49;;;;;;;7.55;5.82;;;13.30;92.40;;;;;;6186751;23;20009;-76
2022/04/30 02:26:16;;;;;;;7.63;6.13;;;13.40;92.40;;;;;;6185019;23;20100;-75
2022/04/30 02:28:42;;;;;;;13.18;6.38;;;13.40;92.20;;;;;;6185059;23;20032;-76
2022/04/30 02:31:21;;;;;;;7.38;5.90;;;13.40;92.30;;;;;;6185466;23;20141;-76
2022/04/30 02:33:46;;;;;;;7.82;6.10;;;13.40;92.40;;;;;;6185581;23;19997;-75
2022/04/30 02:36:13;;;;;;;7.50;6.32;;;13.50;92.20;;;;;;6185536;23;20068;-76
2022/04/30 02:38:38;;;;;;;8.95;6.88;;;13.40;92.20;;;;;;6185667;23;20056;-76
2022/04/30 02:41:04;;;;;;;9.85;6.38;;;13.40;92.20;;;;;;6159424;23;20009;-76
2022/04/30 02:43:32;;;;;;;8.07;6.38;;;13.40;92.10;;;;;;6185273;23;20433;-76
2022/04/30 02:45:58;;;;;;;9.55;6.53;;;13.40;92.30;;;;;;6159084;23;20135;-76
2022/04/30 02:48:25;;;;;;;8.63;6.15;;;13.40;92.30;;;;;;6186053;23;20001;-76
2022/04/30 02:50:53;;;;;;;6.95;6.18;;;13.40;92.20;;;;;;6186341;23;20102;-76
2022/04/30 02:53:19;;;;;;;7.30;6.43;;;13.40;92.50;;;;;;6160113;23;20381;-76
2022/04/30 02:55:45;;;;;;;8.60;7.03;;;13.40;92.40;;;;;;6186530;23;20414;-76
2022/04/30 03:00:55;;;;;;;9.93;6.07;;;13.40;92.60;;;;;;6186552;23;20016;-76
2022/04/30 03:03:22;;;;;;;13.88;6.00;;;13.50;92.50;;;;;;6159973;23;20337;-76
2022/04/30 03:05:50;;;;;;;6.65;5.60;;;13.50;92.60;;;;;;6186257;23;20001;-75
2022/04/30 03:08:20;;;;;;;10.15;6.47;;;13.60;92.60;;;;;;6159823;23;20005;-76
2022/04/30 03:10:47;;;;;;;7.72;5.95;;;13.60;92.60;;;;;;6186588;23;20001;-76
2022/04/30 03:13:14;;;;;;;7.78;5.82;;;13.50;92.70;;;;;;6186027;23;20076;-76
2022/04/30 03:15:43;;;;;;;8.68;6.80;;;13.60;92.50;;;;;;6186177;23;20002;-75
2022/04/30 03:23:30;;;;;;;10.90;6.25;;;13.70;91.60;;;;;;6186291;23;20023;-76
2022/04/30 03:25:56;;;;;;;10.98;6.43;;;13.80;91.20;;;;;;6186411;23;20052;-76
2022/04/30 03:28:23;;;;;;;8.50;6.13;;;13.80;91.00;;;;;;6186164;23;20009;-76
2022/04/30 03:30:49;;;;;;;9.50;5.97;;;13.90;91.00;;;;;;6185772;23;19997;-76
2022/04/30 03:33:15;;;;;;;7.55;6.07;;;13.90;91.80;;;;;;6186489;23;20007;-76
2022/04/30 03:35:41;;;;;;;8.00;5.68;;;13.80;92.00;;;;;;6185928;23;20437;-76
2022/04/30 03:38:08;;;;;;;10.50;6.45;;;13.80;92.20;;;;;;6186099;23;20055;-76
2022/04/30 03:40:38;;;;;;;8.10;6.03;;;13.80;92.30;;;;;;6159667;23;20012;-76
2022/04/30 03:43:06;;;;;;;8.95;5.60;;;13.70;92.60;;;;;;6185873;23;20003;-76
2022/04/30 03:45:32;;;;;;;6.50;5.47;;;13.70;92.70;;;;;;6185928;23;20029;-76
2022/04/30 03:47:58;;;;;;;11.52;5.22;;;13.70;92.90;;;;;;6159795;23;20012;-76
2022/04/30 03:50:24;;;;;;;7.40;5.78;;;13.70;92.90;;;;;;6186199;23;20005;-75
2022/04/30 03:52:49;;;;;;;8.27;6.10;;;13.60;93.00;;;;;;6186008;23;20000;-76
2022/04/30 03:55:15;;;;;;;9.57;5.53;;;13.70;93.10;;;;;;6185492;23;20004;-76
2022/04/30 03:57:41;;;;;;;8.50;5.13;;;13.60;93.00;;;;;;6159643;23;20012;-76
2022/04/30 04:00:09;;;;;;;8.10;5.43;;;13.60;93.10;;;;;;6186119;23;20348;-76
2022/04/30 04:02:36;;;;;;;8.25;5.43;;;13.50;93.20;;;;;;6186078;23;20473;-76
2022/04/30 04:05:02;;;;;;;5.85;4.97;;;13.50;93.30;;;;;;6185873;23;20005;-76
2022/04/30 04:07:30;;;;;;;6.43;5.00;;;13.60;93.40;;;;;;6185732;23;20085;-76
2022/04/30 04:09:56;;;;;;;8.27;5.60;;;13.50;93.30;;;;;;6185826;23;20437;-76
2022/04/30 04:12:22;;;;;;;9.63;5.45;;;13.50;93.40;;;;;;6185919;23;19997;-76
2022/04/30 04:17:38;;;;;;;5.97;5.18;;;13.50;93.30;;;;;;6184714;23;20019;-76
2022/04/30 04:20:13;;;;;;;8.20;5.05;;;13.50;93.40;;;;;;6184504;23;20039;-76
2022/04/30 04:22:39;;;;;;;5.35;4.72;;;13.50;93.60;;;;;;6184294;23;20005;-76
2022/04/30 04:27:54;;;;;;;6.13;4.60;;;13.60;93.60;;;;;;6183916;23;20024;-76
2022/04/30 04:30:23;;;;;;;5.05;4.28;;;13.50;93.40;;;;;;6184100;23;20004;-76
2022/04/30 04:32:50;;;;;;;6.13;4.20;;;13.50;93.40;;;;;;6185056;23;20474;-76
2022/04/30 04:35:16;;;;;;;4.95;4.28;;;13.60;93.60;;;;;;6158728;23;20337;-75
2022/04/30 04:37:43;;;;;;;7.30;4.80;;;13.60;93.60;;;;;;6185350;23;20008;-76
2022/04/30 04:40:11;;;;;;;6.22;5.32;;;13.60;93.50;;;;;;6185518;23;20007;-76
2022/04/30 04:42:37;;;;;;;6.43;4.60;;;13.50;93.50;;;;;;6158667;23;20009;-76
2022/04/30 04:45:04;;;;;;;6.38;4.40;;;13.50;93.50;;;;;;6185493;23;20012;-75
2022/04/30 04:47:31;;;;;;;8.30;5.07;;;13.60;93.60;;;;;;6185044;23;20039;-75
2022/04/30 04:49:56;;;;;;;6.95;4.40;;;13.50;93.70;;;;;;6159010;23;20001;-75
2022/04/30 04:52:22;;;;;;;8.32;4.68;;;13.60;93.50;;;;;;6158861;23;20012;-76
2022/04/30 04:54:49;;;;;;;10.93;5.25;;;13.70;93.60;;;;;;6185364;23;20001;-76
2022/04/30 04:57:15;;;;;;;5.82;4.68;;;13.70;93.40;;;;;;6185283;23;20025;-75
2022/04/30 04:59:41;;;;;;;6.60;5.10;;;13.70;93.30;;;;;;6185415;23;20109;-76
2022/04/30 05:02:07;;;;;;;5.30;4.80;;;13.80;93.00;;;;;;6185029;23;20365;-76
2022/04/30 05:04:33;;;;;;;8.10;5.88;;;13.80;92.90;;;;;;6158488;23;20100;-75
2022/04/30 05:07:00;;;;;;;6.18;4.95;;;13.90;92.50;;;;;;6158722;23;20058;-75
2022/04/30 05:09:26;;;;;;;8.38;4.53;;;13.90;93.00;;;;;;6158539;23;20008;-76
2022/04/30 05:11:53;;;;;;;6.75;5.22;;;13.90;92.80;;;;;;6185203;23;20545;-75
2022/04/30 05:14:19;;;;;;;9.90;5.15;;;14.00;92.70;;;;;;6185233;23;20004;-75
2022/04/30 05:16:44;;;;;;;5.53;5.03;;;14.00;92.80;;;;;;6158885;23;20005;-75
2022/04/30 05:19:10;;;;;;;6.45;4.82;;;14.00;92.90;;;;;;6184992;23;20001;-75
2022/04/30 05:21:36;;;;;;;6.60;4.75;;;14.00;92.90;;;;;;6185505;23;20459;-75
2022/04/30 05:24:02;;;;;;;5.85;5.30;;;14.10;92.70;;;;;;6185154;23;20009;-76
2022/04/30 05:26:32;;;;;;;9.68;5.32;;;14.10;92.50;;;;;;6185066;23;20017;-75
2022/04/30 05:28:58;;;;;;;6.60;4.65;;;14.10;92.50;;;;;;6184983;23;20005;-76
2022/04/30 05:31:24;;;;;;;10.80;5.60;;;14.20;92.80;;;;;;6172935;23;20092;-76
2022/04/30 05:33:50;;;;;;;6.00;5.13;;;14.20;92.80;;;;;;6185178;23;20029;-76
2022/04/30 05:36:16;;;;;;;5.57;4.95;;;14.30;92.70;;;;;;6185189;23;20080;-76
2022/04/30 05:38:42;;;;;;;6.78;5.05;;;14.40;92.80;;;;;;6185176;23;20005;-76
2022/04/30 05:41:07;;;;;;;8.50;5.65;;;14.30;92.80;;;;;;6158764;23;20009;-76
2022/04/30 05:43:33;;;;;;;8.93;4.75;;;14.40;92.80;;;;;;6185119;23;20001;-76
2022/04/30 05:45:59;;;;;;;6.00;4.97;;;14.40;92.90;;;;;;6185003;23;20005;-75
2022/04/30 05:48:24;;;;;;;8.27;5.25;;;14.40;93.00;;;;;;6184844;23;20005;-76
2022/04/30 05:50:51;;;;;;;6.45;5.30;;;14.40;92.70;;;;;;6184904;23;20001;-75
2022/04/30 05:53:17;;;;;;;11.18;5.45;;;14.50;92.70;;;;;;6185580;23;20051;-76
2022/04/30 05:55:43;;;;;;;5.47;4.97;;;14.50;93.00;;;;;;6160589;23;20405;-76
2022/04/30 05:58:08;;;;;;;8.38;5.07;;;14.60;93.10;;;;;;6187227;23;20028;-75
2022/04/30 06:00:34;;;;;;;6.03;5.40;;;14.70;93.10;;;;;;6160700;23;20005;-76
2022/04/30 06:03:00;;;;;;;5.55;4.75;;;14.70;93.30;;;;;;6186902;23;20005;-76
2022/04/30 06:05:26;;;;;;;11.63;5.43;;;14.80;93.30;;;;;;6187058;23;20009;-75
2022/04/30 06:07:53;;;;;;;7.25;5.18;;;14.80;93.40;;;;;;6186926;23;20001;-76
2022/04/30 06:10:19;;;;;;;5.55;4.65;;;14.90;93.50;;;;;;6187335;23;20001;-76
2022/04/30 06:12:45;;;;;;;8.25;5.30;;;15.00;93.30;;;;;;6187388;23;20374;-76
2022/04/30 06:15:11;;;;;;;8.00;5.07;;;15.00;93.70;;;;;;6160195;23;20096;-76
2022/04/30 06:17:37;;;;;;;5.95;4.60;;;15.10;93.60;;;;;;6160501;23;20084;-76
2022/04/30 06:20:06;;;;;;;9.27;4.88;;;15.10;93.60;;;;;;6186796;23;20001;-76
2022/04/30 06:22:34;;;;;;;5.22;4.00;;;15.20;93.80;;;;;;6186659;23;20001;-76
2022/04/30 06:24:59;;;;;;;4.93;4.32;;;15.30;93.80;;;;;;6186648;23;20575;-76
2022/04/30 06:27:26;;;;;;;5.55;5.03;;;15.30;93.50;;;;;;6186473;23;20005;-76
2022/04/30 06:29:51;;;;;;;8.80;4.63;;;15.30;93.40;;;;;;6186906;23;20298;-76
2022/04/30 06:32:17;;;;;;;9.95;4.72;;;15.40;93.40;;;;;;6186704;23;20001;-75
2022/04/30 06:34:43;;;;;;;6.00;5.38;;;15.50;92.90;;;;;;6186988;23;20400;-76
2022/04/30 06:37:09;;;;;;;7.30;4.97;;;15.50;93.40;;;;;;6160286;23;20029;-76
2022/04/30 06:39:35;;;;;;;9.75;4.68;;;15.60;93.40;;;;;;6186804;23;20060;-76
2022/04/30 06:42:00;;;;;;;7.20;5.43;;;15.70;93.00;;;;;;6186682;23;20001;-76
2022/04/30 06:44:26;;;;;;;7.30;5.20;;;15.70;93.00;;;;;;6186813;23;20001;-76
2022/04/30 06:46:52;;;;;;;6.95;5.15;;;15.70;93.50;;;;;;6185377;23;20005;-76
2022/04/30 06:49:17;;;;;;;5.65;5.10;;;15.70;93.30;;;;;;6186301;23;20028;-76
2022/04/30 06:51:45;;;;;;;6.97;5.57;;;15.80;93.00;;;;;;6186035;23;20384;-76
2022/04/30 06:57:07;;;;;;;7.85;5.78;;;15.80;92.70;;;;;;6186205;23;20027;-76
2022/04/30 06:59:37;;;;;;;7.78;5.30;;;15.80;93.20;;;;;;6186477;23;20056;-76
2022/04/30 07:02:11;;;;;;;6.80;5.65;;;15.80;92.90;;;;;;6159607;23;20456;-76
2022/04/30 07:04:38;;;;;;;7.78;5.82;;;15.80;93.60;;;;;;6159373;23;20326;-76
2022/04/30 07:07:04;;;;;;;6.65;5.72;;;15.90;93.70;;;;;;6185959;23;20001;-76
2022/04/30 07:09:33;;;;;;;9.82;6.43;;;15.90;94.20;;;;;;6186260;23;20326;-76
2022/04/30 07:12:05;;;;;;;10.68;5.85;;;15.90;94.00;;;;;;6186278;23;19997;-76
2022/04/30 07:14:36;;;;;;;9.82;5.72;;;16.00;94.40;;;;;;6160223;23;20001;-76
2022/04/30 07:17:06;;;;;;;11.30;5.90;;;15.90;94.30;;;;;;6186242;23;19997;-76
2022/04/30 07:19:32;;;;;;;8.90;4.75;;;16.00;93.90;;;;;;6186371;23;20068;-76
2022/04/30 07:22:02;;;;;;;5.03;4.53;;;16.00;92.20;;;;;;6159878;23;20092;-76
2022/04/30 07:24:28;;;;;;;5.40;4.15;;;16.10;91.50;;;;;;6159374;23;20009;-76
2022/04/30 07:26:54;;;;;;;4.30;3.72;;;16.10;90.20;;;;;;6185449;23;20028;-76
2022/04/30 07:29:20;;;;;;;3.60;3.30;;;16.20;86.80;;;;;;6185774;23;20001;-76
2022/04/30 07:31:49;;;;;;;4.15;3.65;;;16.10;85.30;;;;;;6185439;23;19997;-76
2022/04/30 07:34:15;;;;;;;5.22;3.72;;;16.20;86.50;;;;;;6185144;23;19997;-76
2022/04/30 07:36:41;;;;;;;5.95;3.63;;;16.20;84.30;;;;;;6185140;23;20067;-76
2022/04/30 07:39:07;;;;;;;6.55;4.25;;;16.20;83.20;;;;;;6185157;23;20036;-76
2022/04/30 07:41:33;;;;;;;5.80;4.13;;;16.30;85.20;;;;;;6185151;23;20005;-76
2022/04/30 07:43:59;;;;;;;4.57;3.83;;;16.30;87.30;;;;;;6158873;23;20036;-76
2022/04/30 07:46:25;;;;;;;11.80;4.15;;;16.40;85.50;;;;;;6184933;23;20333;-76
2022/04/30 07:48:54;;;;;;;4.30;3.95;;;16.40;85.20;;;;;;6185810;23;20012;-81
2022/04/30 07:51:33;;;;;;;5.32;4.15;;;16.50;84.20;;;;;;6185515;23;20007;-81
2022/04/30 07:54:01;;;;;;;4.45;3.70;;;16.50;83.10;;;;;;6183849;23;20001;-80
2022/04/30 07:56:26;;;;;;;4.15;3.75;;;16.50;84.60;;;;;;6184043;23;20080;-80
2022/04/30 07:58:52;;;;;;;10.15;4.78;;;16.50;85.30;;;;;;6184307;23;20032;-80
2022/04/30 08:01:17;;;;;;;4.47;4.03;;;16.50;85.80;;;;;;6184269;23;20001;-81
2022/04/30 08:03:44;;;;;;;6.68;3.83;;;16.60;83.40;;;;;;6184485;23;20005;-80
2022/04/30 08:06:10;;;;;;;4.32;3.92;;;16.70;85.50;;;;;;6184647;23;20005;-81
2022/04/30 08:08:36;;;;;;;7.05;4.03;;;16.70;85.80;;;;;;6184916;23;20076;-81
2022/04/30 08:11:02;;;;;;;5.82;4.25;;;16.80;88.70;;;;;;6184903;23;20008;-80
2022/04/30 08:13:27;;;;;;;14.32;5.38;;;17.00;83.00;;;;;;6185760;23;20008;-80
2022/04/30 08:15:53;;;;;;;10.00;4.63;;;17.00;82.70;;;;;;6158865;23;20378;-80
2022/04/30 08:18:19;;;;;;;18.17;5.15;;;17.10;84.00;;;;;;6186008;23;20039;-80
2022/04/30 08:20:46;;;;;;;6.65;4.65;;;17.20;86.40;;;;;;6185758;23;20009;-81
2022/04/30 08:23:12;;;;;;;12.93;4.82;;;17.30;85.50;;;;;;6185564;23;20012;-81
2022/04/30 08:25:39;;;;;;;19.10;6.10;;;17.40;82.50;;;;;;6185826;23;20425;-81
2022/04/30 08:28:05;;;;;;;32.08;8.57;;;17.50;79.60;;;;;;6185789;23;20085;-81
2022/04/30 08:30:32;;;;;;;7.03;4.82;;;17.50;79.30;;;;;;6185908;23;20079;-81
2022/04/30 08:32:59;;;;;;;12.45;4.50;;;17.50;77.40;;;;;;6158945;23;20310;-80
2022/04/30 08:35:24;;;;;;;7.78;4.30;;;17.50;78.20;;;;;;6185741;23;20586;-80
2022/04/30 08:37:51;;;;;;;7.93;4.25;;;17.60;80.00;;;;;;6159519;23;20009;-80
2022/04/30 08:40:17;;;;;;;5.15;4.65;;;17.70;80.60;;;;;;6185715;23;20001;-80
2022/04/30 08:42:43;;;;;;;4.15;3.67;;;17.60;78.00;;;;;;6185666;23;20459;-80
2022/04/30 08:45:10;;;;;;;4.20;3.20;;;17.60;75.50;;;;;;6185645;23;20007;-81
2022/04/30 08:47:47;;;;;;;4.05;3.33;;;17.90;75.90;;;;;;6159271;23;20032;-81
2022/04/30 08:50:14;;;;;;;7.90;3.65;;;18.00;72.50;;;;;;6185691;23;20008;-81
2022/04/30 08:52:41;;;;;;;3.28;2.80;;;18.00;69.50;;;;;;6158712;23;20133;-81
2022/04/30 08:55:09;;;;;;;5.60;3.85;;;18.00;72.30;;;;;;6158922;23;20449;-81
2022/04/30 08:57:35;;;;;;;6.30;3.05;;;18.10;67.10;;;;;;6184808;23;20000;-81
2022/04/30 09:00:01;;;;;;;3.55;2.65;;;18.10;69.20;;;;;;6158665;23;20012;-81
2022/04/30 09:02:28;;;;;;;3.92;3.13;;;18.20;70.40;;;;;;6185296;23;20001;-80
2022/04/30 09:04:54;;;;;;;3.05;2.85;;;18.20;70.80;;;;;;6184608;23;20059;-81
2022/04/30 09:07:22;;;;;;;3.58;2.78;;;18.30;65.50;;;;;;6184950;23;20004;-81
2022/04/30 09:09:58;;;;;;;2.83;2.63;;;18.40;66.00;;;;;;6184993;23;20001;-81
2022/04/30 09:12:25;;;;;;;4.82;3.00;;;18.30;67.10;;;;;;6185417;23;20001;-81
2022/04/30 09:14:52;;;;;;;5.88;2.92;;;18.40;66.40;;;;;;6159179;23;20005;-81
2022/04/30 09:17:18;;;;;;;3.47;2.28;;;18.50;67.10;;;;;;6185424;23;20005;-80
2022/04/30 09:19:59;;;;;;;3.17;2.88;;;18.60;67.70;;;;;;6185248;23;20315;-81
2022/04/30 09:22:34;;;;;;;4.30;2.80;;;18.70;70.10;;;;;;6185296;23;20059;-80
2022/04/30 09:25:02;;;;;;;3.30;3.08;;;18.80;69.30;;;;;;6158914;23;20009;-81
2022/04/30 09:27:28;;;;;;;3.33;3.03;;;18.90;71.70;;;;;;6158390;23;20047;-81
2022/04/30 09:29:54;;;;;;;4.57;2.80;;;19.00;67.10;;;;;;6185232;23;19997;-81
2022/04/30 09:32:22;;;;;;;3.33;3.03;;;19.00;66.30;;;;;;6185339;23;20333;-81
2022/04/30 09:37:42;;;;;;;4.57;3.20;;;18.90;62.90;;;;;;6185423;23;20016;-81
2022/04/30 09:40:14;;;;;;;4.55;2.85;;;18.80;65.00;;;;;;6185182;23;20045;-81
2022/04/30 09:42:41;;;;;;;5.63;3.20;;;18.90;66.00;;;;;;6185378;23;20434;-84
2022/04/30 09:45:07;;;;;;;4.35;3.10;;;19.10;67.70;;;;;;6185149;23;20051;-81
2022/04/30 09:47:34;;;;;;;3.88;2.60;;;19.20;63.60;;;;;;6185246;23;20056;-81
2022/04/30 09:55:34;;;;;;;4.30;3.03;;;19.20;59.90;;;;;;6185147;23;20016;-81
2022/04/30 09:58:04;;;;;;;3.08;2.78;;;19.10;59.10;;;;;;6158873;23;20340;-81
2022/04/30 10:00:33;;;;;;;4.40;2.70;;;19.10;62.40;;;;;;6185128;23;20388;-81
2022/04/30 10:03:03;;;;;;;3.42;2.90;;;19.10;59.50;;;;;;6158807;23;20333;-81
2022/04/30 10:05:35;;;;;;;4.82;3.53;;;19.10;59.60;;;;;;6185165;23;19997;-81
2022/04/30 10:08:01;;;;;;;3.13;2.83;;;19.10;60.70;;;;;;6185282;23;20024;-81
2022/04/30 10:10:38;;;;;;;4.60;3.28;;;19.20;65.30;;;;;;6184970;23;20437;-81
2022/04/30 10:13:12;;;;;;;2.90;2.67;;;19.40;66.20;;;;;;6185338;23;19997;-81
2022/04/30 10:15:46;;;;;;;3.42;3.20;;;19.50;64.70;;;;;;6185013;23;20007;-81
2022/04/30 10:18:13;;;;;;;3.20;3.00;;;19.60;64.10;;;;;;6185241;23;20075;-81
2022/04/30 10:20:49;;;;;;;4.40;3.13;;;19.70;60.80;;;;;;6175641;23;20039;-81
2022/04/30 10:23:16;;;;;;;5.72;3.42;;;19.70;58.10;;;;;;6158449;23;20068;-81
2022/04/30 10:25:47;;;;;;;7.07;3.10;;;19.70;57.30;;;;;;6185153;23;20001;-81
2022/04/30 10:28:23;;;;;;;3.53;3.28;;;19.80;57.30;;;;;;6184942;23;20009;-81
2022/04/30 10:31:02;;;;;;;5.60;3.60;;;19.80;58.20;;;;;;6184670;23;20001;-81
2022/04/30 10:33:28;;;;;;;11.63;4.60;;;19.80;57.70;;;;;;6158615;23;20001;-81
2022/04/30 10:36:14;;;;;;;5.82;2.92;;;19.80;56.80;;;;;;6185048;23;20001;-81
2022/04/30 10:38:42;;;;;;;7.20;3.47;;;19.80;57.00;;;;;;6184460;23;20005;-81
2022/04/30 10:41:10;;;;;;;3.65;2.95;;;19.90;57.50;;;;;;6186795;23;20377;-81
2022/04/30 10:43:38;;;;;;;3.22;3.03;;;20.00;59.50;;;;;;6186851;23;20005;-81
2022/04/30 10:46:05;;;;;;;3.65;3.10;;;20.20;58.90;;;;;;6186339;23;20005;-81
2022/04/30 10:48:35;;;;;;;3.45;3.15;;;20.30;57.60;;;;;;6160312;23;20375;-81
2022/04/30 10:51:11;;;;;;;3.95;3.55;;;20.50;57.50;;;;;;6186591;23;19997;-81
2022/04/30 10:53:42;;;;;;;3.95;3.40;;;20.60;55.10;;;;;;6186683;23;20009;-81
2022/04/30 10:56:08;;;;;;;3.95;3.60;;;20.70;56.30;;;;;;6186665;23;20001;-81
2022/04/30 10:58:44;;;;;;;4.90;4.13;;;20.70;55.00;;;;;;6186763;23;20039;-81
2022/04/30 11:01:19;;;;;;;5.47;4.22;;;20.80;56.90;;;;;;6186693;23;20001;-81
2022/04/30 11:03:49;;;;;;;4.53;4.13;;;20.80;55.80;;;;;;6186385;23;20009;-81
2022/04/30 11:06:20;;;;;;;4.28;3.85;;;20.90;55.70;;;;;;6186431;23;20002;-81
2022/04/30 11:09:06;;;;;;;5.05;3.72;;;20.90;55.80;;;;;;6186572;23;20084;-81
2022/04/30 11:11:33;;;;;;;3.75;3.50;;;21.00;55.00;;;;;;6186594;23;20005;-81
2022/04/30 11:14:10;;;;;;;6.00;4.30;;;21.00;54.00;;;;;;6186148;23;20032;-81
2022/04/30 11:16:38;;;;;;;5.38;3.88;;;21.10;55.40;;;;;;6186487;23;20055;-81
2022/04/30 11:19:08;;;;;;;4.22;3.92;;;21.40;56.20;;;;;;6186254;23;20003;-81
2022/04/30 11:21:42;;;;;;;4.30;3.80;;;21.60;56.20;;;;;;6186274;23;20001;-81
2022/04/30 11:24:09;;;;;;;3.85;3.55;;;21.80;57.00;;;;;;6160084;23;20463;-81
2022/04/30 11:26:43;;;;;;;3.97;3.67;;;21.80;54.90;;;;;;6186386;23;20005;-81
2022/04/30 11:29:13;;;;;;;4.18;3.72;;;21.70;52.20;;;;;;6186020;23;20013;-81
2022/04/30 11:31:41;;;;;;;5.05;4.50;;;21.60;53.50;;;;;;6186582;23;20001;-82
2022/04/30 11:34:17;;;;;;;4.65;3.85;;;21.50;55.50;;;;;;6186512;23;20005;-82
2022/04/30 11:36:48;;;;;;;6.70;4.57;;;21.50;55.20;;;;;;6186406;23;19997;-82
2022/04/30 11:39:15;;;;;;;5.25;4.75;;;21.40;52.90;;;;;;6186240;23;20040;-82
2022/04/30 11:41:49;;;;;;;8.73;4.93;;;21.40;53.10;;;;;;6159947;23;20059;-81
2022/04/30 11:44:21;;;;;;;5.78;4.15;;;21.50;53.90;;;;;;6186264;23;20072;-82
2022/04/30 11:46:48;;;;;;;;;;;21.30;53.90;;;;;;6186915;23;20588;-82
2022/04/30 11:49:17;;;;;;;4.28;3.92;;;21.40;54.90;;;;;;6186148;23;19931;-82
2022/04/30 11:51:44;;;;;;;5.05;3.95;;;21.40;55.80;;;;;;6185609;23;20001;-82
2022/04/30 11:54:12;;;;;;;8.93;4.38;;;21.40;55.50;;;;;;6159818;23;20310;-82
2022/04/30 11:56:39;;;;;;;4.35;4.03;;;21.30;54.00;;;;;;6186023;23;20001;-82
2022/04/30 11:59:06;;;;;;;7.72;4.25;;;21.30;54.80;;;;;;6186094;23;20005;-81
2022/04/30 12:01:38;;;;;;;5.00;4.57;;;21.20;54.40;;;;;;6159573;23;20055;-81
2022/04/30 12:04:11;;;;;;;4.00;3.70;;;21.20;53.80;;;;;;6159633;23;20009;-82
2022/04/30 12:06:38;;;;;;;5.43;4.38;;;21.10;54.20;;;;;;6185930;23;20101;-82
2022/04/30 12:09:14;;;;;;;5.32;4.25;;;21.10;54.50;;;;;;6185928;23;20005;-82
2022/04/30 12:11:44;;;;;;;6.63;3.95;;;21.10;53.10;;;;;;6185567;23;20001;-82
2022/04/30 12:14:11;;;;;;;5.75;4.30;;;21.20;54.50;;;;;;6185870;23;20001;-82
2022/04/30 12:16:41;;;;;;;5.03;3.83;;;21.20;55.40;;;;;;6185742;23;20441;-81
2022/04/30 12:25:17;;;;;;;4.90;4.50;;;21.10;53.90;;;;;;6185581;23;20055;-81
2022/04/30 12:27:53;;;;;;;5.05;4.60;;;21.10;55.80;;;;;;6185754;23;20381;-82
2022/04/30 12:30:20;;;;;;;8.32;4.63;;;21.10;55.00;;;;;;6158898;23;20043;-82
2022/04/30 12:32:54;;;;;;;5.50;3.92;;;21.00;54.30;;;;;;6159492;23;20001;-82
2022/04/30 12:35:24;;;;;;;4.18;3.88;;;21.10;53.60;;;;;;6185430;23;20008;-82
2022/04/30 12:38:03;;;;;;;6.55;4.40;;;21.10;53.30;;;;;;6185818;23;20012;-82
2022/04/30 12:40:29;;;;;;;6.72;4.05;;;21.00;52.40;;;;;;6184712;23;20059;-82
2022/04/30 12:42:55;;;;;;;5.55;3.83;;;21.00;53.20;;;;;;6158022;23;20009;-82
2022/04/30 12:45:21;;;;;;;7.90;4.53;;;21.10;53.20;;;;;;6184347;23;20029;-82
2022/04/30 12:47:49;;;;;;;6.22;3.92;;;21.10;53.60;;;;;;6184465;23;20036;-82
2022/04/30 12:50:15;;;;;;;7.07;4.05;;;21.20;58.10;;;;;;6184340;23;20069;-81
2022/04/30 12:52:40;;;;;;;3.88;3.58;;;21.40;57.40;;;;;;6185639;23;20004;-82
2022/04/30 12:55:06;;;;;;;11.48;3.78;;;21.50;54.80;;;;;;6185538;23;19997;-81
2022/04/30 12:57:32;;;;;;;5.25;4.72;;;21.60;53.40;;;;;;6158132;23;20044;-82
2022/04/30 12:59:58;;;;;;;6.15;4.60;;;21.60;52.40;;;;;;6185607;23;20024;-82
2022/04/30 13:02:24;;;;;;;7.90;4.10;;;21.60;52.90;;;;;;6184968;23;20005;-82
2022/04/30 13:04:51;;;;;;;4.22;3.83;;;21.80;54.10;;;;;;6158249;23;20005;-81
2022/04/30 13:07:18;;;;;;;7.72;4.32;;;21.80;54.90;;;;;;6185026;23;20076;-82
2022/04/30 13:15:13;;;;;;;5.70;4.85;;;21.80;55.10;;;;;;6184603;23;20448;-82
2022/04/30 13:17:38;;;;;;;5.88;5.30;;;21.90;53.00;;;;;;6184790;23;20005;-82
2022/04/30 13:20:05;;;;;;;6.00;5.25;;;21.80;54.60;;;;;;6158664;23;20009;-82
2022/04/30 13:22:32;;;;;;;10.73;6.00;;;21.80;54.10;;;;;;6158505;23;20028;-82
2022/04/30 13:24:58;;;;;;;5.90;5.30;;;21.80;53.80;;;;;;6158686;23;20426;-82
2022/04/30 13:27:24;;;;;;;7.13;5.10;;;21.80;55.20;;;;;;6185155;23;20013;-81
2022/04/30 13:29:51;;;;;;;5.07;4.35;;;21.90;57.00;;;;;;6158725;23;20005;-82